Time;durP1;ratioP1;P1;durP2;ratioP2;P2;SDS_P1;SDS_P2;PMS_P1;PMS_P2;Temp;Humidity;BMP_temperature;BMP_pressure;BME280_temperature;BME280_humidity;BME280_pressure;Samples;Min_cycle;Max_cycle;Signal;HPM_P1;HPM_P2
2023/04/10 00:00:40;;;;;;;13.48;12.07;;;;;;;;;;10292628;28;20501;-68
2023/04/10 00:05:39;;;;;;;13.45;12.15;;;;;;;;;;10292281;28;20085;-68
2023/04/10 00:10:38;;;;;;;13.43;12.23;;;;;;;;;;10291549;28;20516;-67
2023/04/10 00:15:36;;;;;;;14.23;12.73;;;;;;;;;;10294188;28;20068;-67
2023/04/10 00:20:35;;;;;;;15.88;12.60;;;;;;;;;;10291969;28;20079;-67
2023/04/10 00:25:34;;;;;;;15.13;13.63;;;;;;;;;;10291974;28;21137;-67
2023/04/10 00:30:32;;;;;;;15.70;13.48;;;;;;;;;;10292588;28;20076;-67
2023/04/10 00:35:31;;;;;;;15.75;14.10;;;;;;;;;;10288506;28;20075;-67
2023/04/10 00:40:29;;;;;;;18.25;16.38;;;;;;;;;;10302390;28;20477;-67
2023/04/10 00:45:29;;;;;;;18.00;16.20;;;;;;;;;;10293586;28;20537;-67
2023/04/10 00:50:27;;;;;;;19.38;17.17;;;;;;;;;;10290866;28;20510;-67
2023/04/10 00:55:25;;;;;;;17.10;15.45;;;;;;;;;;10294154;28;20064;-66
2023/04/10 01:00:24;;;;;;;23.02;16.77;;;;;;;;;;10289824;28;20063;-67
2023/04/10 01:05:24;;;;;;;19.98;17.15;;;;;;;;;;10288816;28;20072;-66
2023/04/10 01:10:26;;;;;;;22.73;18.40;;;;;;;;;;10289753;28;20083;-66
2023/04/10 01:15:26;;;;;;;18.70;16.88;;;;;;;;;;10289402;28;20505;-66
2023/04/10 01:20:28;;;;;;;17.30;15.50;;;;;;;;;;10288932;28;20301;-66
2023/04/10 01:25:37;;;;;;;19.08;17.17;;;;;;;;;;10289236;28;20574;-68
2023/04/10 01:30:38;;;;;;;17.40;15.70;;;;;;;;;;10291367;28;20083;-67
2023/04/10 01:35:41;;;;;;;19.70;17.65;;;;;;;;;;10296707;28;20065;-67
2023/04/10 01:40:41;;;;;;;21.95;19.65;;;;;;;;;;10290760;28;20077;-67
2023/04/10 01:45:42;;;;;;;19.60;17.55;;;;;;;;;;10294364;28;20077;-66
2023/04/10 01:50:41;;;;;;;18.88;16.80;;;;;;;;;;10295679;28;20071;-67
2023/04/10 01:55:39;;;;;;;21.05;18.85;;;;;;;;;;10296585;28;20075;-67
2023/04/10 02:00:43;;;;;;;20.77;18.42;;;;;;;;;;10303355;28;20089;-66
2023/04/10 02:05:53;;;;;;;22.77;20.48;;;;;;;;;;10314285;28;20076;-67
2023/04/10 02:10:53;;;;;;;23.08;20.40;;;;;;;;;;10316804;28;20057;-67
2023/04/10 02:15:54;;;;;;;26.48;21.48;;;;;;;;;;10296904;28;20087;-67
2023/04/10 02:20:54;;;;;;;25.17;21.88;;;;;;;;;;10302992;28;20080;-67
2023/04/10 02:25:52;;;;;;;22.77;20.42;;;;;;;;;;10295572;28;20088;-67
2023/04/10 02:30:50;;;;;;;24.17;20.92;;;;;;;;;;10295962;28;20064;-68
2023/04/10 02:35:49;;;;;;;29.05;21.60;;;;;;;;;;10295545;28;20072;-67
2023/04/10 02:40:49;;;;;;;22.40;20.00;;;;;;;;;;10295830;28;20080;-67
2023/04/10 02:45:48;;;;;;;27.80;21.33;;;;;;;;;;10291131;28;20529;-67
2023/04/10 02:50:55;;;;;;;25.20;22.50;;;;;;;;;;10297480;28;20506;-66
2023/04/10 02:55:55;;;;;;;25.13;20.88;;;;;;;;;;10291486;28;20049;-66
2023/04/10 03:00:53;;;;;;;24.98;22.33;;;;;;;;;;10298885;28;20514;-66
2023/04/10 03:06:06;;;;;;;25.92;22.98;;;;;;;;;;10297200;28;20086;-67
2023/04/10 03:11:08;;;;;;;26.35;23.55;;;;;;;;;;10294687;28;20048;-67
2023/04/10 03:16:07;;;;;;;25.45;22.65;;;;;;;;;;10311115;28;20080;-66
2023/04/10 03:21:06;;;;;;;25.02;21.83;;;;;;;;;;10288716;28;20494;-66
2023/04/10 03:26:04;;;;;;;27.33;24.40;;;;;;;;;;10290845;28;20098;-67
2023/04/10 03:31:09;;;;;;;26.80;23.63;;;;;;;;;;10294597;28;20081;-66
2023/04/10 03:36:09;;;;;;;27.85;24.00;;;;;;;;;;10294324;28;20065;-66
2023/04/10 03:41:07;;;;;;;27.77;24.10;;;;;;;;;;10293170;28;20077;-67
2023/04/10 03:46:05;;;;;;;28.33;24.98;;;;;;;;;;10300465;28;20087;-67
2023/04/10 03:51:12;;;;;;;28.30;23.90;;;;;;;;;;10294040;28;20473;-67
2023/04/10 03:56:11;;;;;;;27.65;24.30;;;;;;;;;;10297159;28;20102;-67
2023/04/10 04:01:09;;;;;;;29.17;25.42;;;;;;;;;;10292785;28;20068;-67
2023/04/10 04:06:26;;;;;;;35.00;28.75;;;;;;;;;;10286606;28;20084;-67
2023/04/10 04:12:02;;;;;;;47.78;38.70;;;;;;;;;;10308598;28;20080;-68
2023/04/10 04:17:19;;;;;;;44.25;38.22;;;;;;;;;;10297565;28;20507;-67
2023/04/10 04:22:37;;;;;;;92.90;73.53;;;;;;;;;;10293134;28;20076;-67
2023/04/10 04:27:44;;;;;;;31.45;26.83;;;;;;;;;;10300162;28;20080;-67
2023/04/10 04:33:00;;;;;;;27.20;24.00;;;;;;;;;;10301149;28;20080;-67
2023/04/10 04:38:32;;;;;;;34.78;25.85;;;;;;;;;;10286823;28;20505;-66
2023/04/10 04:43:41;;;;;;;25.60;22.60;;;;;;;;;;10286824;28;20056;-67
2023/04/10 04:48:57;;;;;;;27.65;23.40;;;;;;;;;;10291067;28;20077;-67
2023/04/10 04:54:07;;;;;;;30.52;24.60;;;;;;;;;;10283712;28;20080;-66
2023/04/10 04:59:20;;;;;;;31.38;25.80;;;;;;;;;;10283756;28;20095;-66
2023/04/10 05:04:56;;;;;;;29.30;24.45;;;;;;;;;;10353978;28;20083;-66
2023/04/10 05:10:16;;;;;;;29.05;25.40;;;;;;;;;;10294785;28;20521;-66
2023/04/10 05:15:33;;;;;;;28.08;25.15;;;;;;;;;;10292893;28;20080;-67
2023/04/10 05:20:49;;;;;;;29.48;24.00;;;;;;;;;;10290317;28;20072;-66
2023/04/10 05:25:57;;;;;;;28.27;25.15;;;;;;;;;;10292050;28;20087;-68
2023/04/10 05:31:13;;;;;;;32.72;26.67;;;;;;;;;;10286541;28;20072;-67
2023/04/10 05:36:23;;;;;;;28.75;25.52;;;;;;;;;;10289723;28;20075;-66
2023/04/10 05:41:58;;;;;;;28.42;25.00;;;;;;;;;;10265536;28;20081;-66
2023/04/10 05:47:01;;;;;;;27.43;24.53;;;;;;;;;;10293292;28;20087;-66
2023/04/10 05:52:08;;;;;;;26.10;23.35;;;;;;;;;;10288683;28;20071;-66
2023/04/10 05:57:26;;;;;;;26.30;23.58;;;;;;;;;;10292791;28;20072;-66
2023/04/10 06:02:43;;;;;;;28.58;24.27;;;;;;;;;;10294047;28;20119;-66
2023/04/10 06:07:50;;;;;;;26.38;23.60;;;;;;;;;;10293073;28;20502;-66
2023/04/10 06:12:50;;;;;;;42.08;35.30;;;;;;;;;;10288343;28;20076;-67
2023/04/10 06:17:52;;;;;;;47.83;36.03;;;;;;;;;;10294650;28;20073;-67
2023/04/10 06:22:51;;;;;;;28.55;24.52;;;;;;;;;;10290784;28;20080;-65
2023/04/10 06:27:51;;;;;;;26.40;23.65;;;;;;;;;;10290342;28;20115;-65
2023/04/10 06:32:49;;;;;;;32.33;25.95;;;;;;;;;;10308324;28;20068;-65
2023/04/10 06:37:47;;;;;;;28.83;24.90;;;;;;;;;;10294358;28;20498;-68
2023/04/10 06:42:46;;;;;;;32.60;29.17;;;;;;;;;;10296072;28;20077;-64
2023/04/10 06:47:53;;;;;;;25.20;22.58;;;;;;;;;;10291732;28;20497;-65
2023/04/10 06:52:54;;;;;;;29.13;24.17;;;;;;;;;;10292965;28;20072;-66
2023/04/10 06:57:53;;;;;;;27.75;24.75;;;;;;;;;;10293119;28;20076;-65
2023/04/10 07:02:52;;;;;;;27.10;23.45;;;;;;;;;;10295715;28;20848;-64
2023/04/10 07:07:52;;;;;;;47.25;28.27;;;;;;;;;;10293927;28;20079;-65
2023/04/10 07:12:50;;;;;;;29.65;25.98;;;;;;;;;;10288910;28;20080;-64
2023/04/10 07:17:48;;;;;;;32.95;28.42;;;;;;;;;;10293579;28;20073;-67
2023/04/10 07:22:46;;;;;;;31.88;26.88;;;;;;;;;;10292397;28;20068;-66
2023/04/10 07:27:46;;;;;;;23.90;21.48;;;;;;;;;;10294380;28;20068;-66
2023/04/10 07:32:44;;;;;;;25.85;23.05;;;;;;;;;;10289228;28;20073;-65
2023/04/10 07:37:43;;;;;;;29.48;26.15;;;;;;;;;;10293125;28;20069;-65
2023/04/10 07:42:41;;;;;;;23.98;21.58;;;;;;;;;;10291337;28;20082;-65
2023/04/10 07:47:41;;;;;;;31.92;25.20;;;;;;;;;;10292538;28;20087;-66
2023/04/10 07:52:39;;;;;;;23.80;21.15;;;;;;;;;;10293320;28;20072;-66
2023/04/10 07:57:37;;;;;;;27.58;23.48;;;;;;;;;;10289428;28;20429;-65
2023/04/10 08:02:39;;;;;;;28.83;25.42;;;;;;;;;;10290688;28;20091;-65
2023/04/10 08:07:39;;;;;;;26.77;23.98;;;;;;;;;;10292129;28;20079;-66
2023/04/10 08:12:38;;;;;;;25.33;22.60;;;;;;;;;;10291560;28;20083;-65
2023/04/10 08:17:36;;;;;;;26.70;24.00;;;;;;;;;;10290647;28;20083;-65
2023/04/10 08:22:34;;;;;;;25.92;23.13;;;;;;;;;;10291862;28;20081;-66
2023/04/10 08:27:34;;;;;;;24.63;21.33;;;;;;;;;;10285970;28;20073;-66
2023/04/10 08:32:32;;;;;;;22.17;19.92;;;;;;;;;;10292468;28;20068;-66
2023/04/10 08:37:30;;;;;;;24.48;21.67;;;;;;;;;;10290280;28;20514;-65
2023/04/10 08:42:30;;;;;;;32.67;27.10;;;;;;;;;;10290688;28;20076;-66
2023/04/10 08:47:34;;;;;;;28.17;25.27;;;;;;;;;;10291066;28;20091;-66
2023/04/10 08:52:34;;;;;;;22.60;20.25;;;;;;;;;;10291756;28;20084;-66
2023/04/10 08:57:33;;;;;;;23.70;20.77;;;;;;;;;;10289771;28;20079;-66
2023/04/10 09:02:32;;;;;;;20.17;18.23;;;;;;;;;;10288703;28;20060;-66
2023/04/10 09:07:31;;;;;;;23.95;19.90;;;;;;;;;;10289876;28;20071;-66
2023/04/10 09:12:29;;;;;;;26.67;22.30;;;;;;;;;;10289474;28;20073;-66
2023/04/10 09:17:27;;;;;;;32.40;29.08;;;;;;;;;;10292304;28;20075;-66
2023/04/10 09:22:31;;;;;;;21.33;19.23;;;;;;;;;;10288274;28;20048;-67
2023/04/10 09:27:31;;;;;;;22.02;19.83;;;;;;;;;;10284611;28;20076;-66
2023/04/10 09:32:37;;;;;;;20.73;18.65;;;;;;;;;;10289456;28;20518;-66
2023/04/10 09:37:37;;;;;;;20.48;17.60;;;;;;;;;;10288944;28;20475;-66
2023/04/10 09:42:36;;;;;;;19.33;17.25;;;;;;;;;;10285492;28;20085;-66
2023/04/10 09:47:35;;;;;;;17.75;15.88;;;;;;;;;;10286451;28;20076;-66
2023/04/10 09:52:34;;;;;;;17.25;15.57;;;;;;;;;;10287684;28;20339;-66
2023/04/10 09:57:34;;;;;;;19.17;16.40;;;;;;;;;;10289488;28;20075;-66
2023/04/10 10:02:36;;;;;;;19.13;17.13;;;;;;;;;;10289880;28;20529;-66
2023/04/10 10:07:34;;;;;;;16.65;14.90;;;;;;;;;;10293852;28;20182;-65
2023/04/10 10:12:40;;;;;;;14.98;13.55;;;;;;;;;;10297790;28;20073;-65
2023/04/10 10:17:41;;;;;;;15.77;14.18;;;;;;;;;;10298215;28;20514;-65
2023/04/10 10:22:40;;;;;;;15.10;13.65;;;;;;;;;;10296427;28;20060;-66
2023/04/10 10:27:40;;;;;;;16.05;14.43;;;;;;;;;;10295756;28;20072;-65
2023/04/10 10:32:39;;;;;;;14.18;12.77;;;;;;;;;;10296046;28;20076;-66
2023/04/10 10:37:38;;;;;;;13.55;11.95;;;;;;;;;;10295402;28;20080;-66
2023/04/10 10:42:40;;;;;;;13.50;12.20;;;;;;;;;;10296432;28;20083;-65
2023/04/10 10:47:41;;;;;;;11.88;10.63;;;;;;;;;;10291215;28;20521;-66
2023/04/10 10:52:41;;;;;;;11.57;10.38;;;;;;;;;;10291406;28;20084;-66
2023/04/10 10:57:45;;;;;;;11.63;9.18;;;;;;;;;;10295013;28;20099;-65
2023/04/10 11:02:43;;;;;;;;;;;;;;;;;;10293983;28;20496;-66
2023/04/10 11:08:01;;;;;;;10.18;9.27;;;;;;;;;;10293519;28;19956;-66
2023/04/10 11:13:16;;;;;;;13.43;8.68;;;;;;;;;;10296808;28;20087;-66
2023/04/10 11:18:14;;;;;;;9.18;8.07;;;;;;;;;;10294030;28;20072;-66
2023/04/10 11:23:13;;;;;;;10.32;9.00;;;;;;;;;;10293644;28;20076;-66
2023/04/10 11:28:33;;;;;;;11.05;9.95;;;;;;;;;;10294708;28;20490;-67
2023/04/10 11:33:32;;;;;;;12.65;10.43;;;;;;;;;;10293659;28;20077;-66
2023/04/10 11:38:31;;;;;;;13.30;9.10;;;;;;;;;;10294763;28;20080;-67
2023/04/10 11:43:29;;;;;;;11.43;10.43;;;;;;;;;;10293268;28;20068;-66
2023/04/10 11:48:28;;;;;;;14.45;12.57;;;;;;;;;;10291875;28;20040;-66
2023/04/10 11:53:28;;;;;;;11.75;9.93;;;;;;;;;;10292042;28;20072;-66
2023/04/10 11:58:28;;;;;;;13.30;11.63;;;;;;;;;;10292651;28;20064;-65
2023/04/10 12:03:37;;;;;;;11.45;10.27;;;;;;;;;;10292752;28;20060;-66
2023/04/10 12:08:37;;;;;;;10.10;9.13;;;;;;;;;;10292122;28;20072;-67
2023/04/10 12:13:36;;;;;;;9.85;8.07;;;;;;;;;;10291563;28;20072;-66
2023/04/10 12:18:36;;;;;;;10.40;9.32;;;;;;;;;;10292798;28;20102;-66
2023/04/10 12:23:36;;;;;;;15.23;8.88;;;;;;;;;;10291233;28;20064;-66
2023/04/10 12:28:35;;;;;;;8.32;7.43;;;;;;;;;;10290889;28;20064;-67
2023/04/10 12:33:34;;;;;;;8.68;7.78;;;;;;;;;;10288811;28;20083;-66
2023/04/10 12:38:35;;;;;;;12.52;9.25;;;;;;;;;;10290565;28;20080;-66
2023/04/10 12:43:36;;;;;;;9.23;8.32;;;;;;;;;;10290645;28;20079;-66
2023/04/10 12:48:34;;;;;;;9.48;8.48;;;;;;;;;;10291615;28;20064;-66
2023/04/10 12:53:42;;;;;;;7.88;7.18;;;;;;;;;;10290933;28;20072;-66
2023/04/10 12:58:42;;;;;;;8.10;7.30;;;;;;;;;;10291195;28;20134;-66
2023/04/10 13:03:40;;;;;;;9.07;7.80;;;;;;;;;;10290835;28;20170;-66
2023/04/10 13:08:39;;;;;;;9.32;8.43;;;;;;;;;;10289995;28;20099;-66
2023/04/10 13:13:37;;;;;;;10.30;8.57;;;;;;;;;;10287565;28;20072;-66
2023/04/10 13:18:37;;;;;;;9.57;8.68;;;;;;;;;;10288888;28;20475;-67
2023/04/10 13:23:38;;;;;;;10.13;8.93;;;;;;;;;;10288438;28;20075;-67
2023/04/10 13:28:36;;;;;;;11.30;8.75;;;;;;;;;;10288907;28;20473;-67
2023/04/10 13:33:34;;;;;;;8.07;7.35;;;;;;;;;;10288826;28;20076;-67
2023/04/10 13:38:34;;;;;;;8.57;7.78;;;;;;;;;;10289729;28;20451;-67
2023/04/10 13:43:32;;;;;;;9.23;8.15;;;;;;;;;;10296254;28;20114;-67
2023/04/10 13:48:31;;;;;;;8.85;7.30;;;;;;;;;;10298011;28;20529;-68
2023/04/10 13:53:38;;;;;;;7.40;6.75;;;;;;;;;;10296753;28;20498;-67
2023/04/10 13:58:36;;;;;;;11.25;10.15;;;;;;;;;;10292458;28;20069;-68
2023/04/10 14:03:35;;;;;;;7.65;6.95;;;;;;;;;;10284441;28;20092;-68
2023/04/10 14:08:33;;;;;;;11.85;9.93;;;;;;;;;;10285055;28;20461;-67
2023/04/10 14:13:33;;;;;;;9.55;8.45;;;;;;;;;;10291875;28;20553;-68
2023/04/10 14:18:31;;;;;;;9.07;7.50;;;;;;;;;;10292979;28;20061;-68
2023/04/10 14:23:29;;;;;;;9.10;8.20;;;;;;;;;;10290269;28;20497;-67
2023/04/10 14:28:28;;;;;;;10.45;9.45;;;;;;;;;;10291944;28;20067;-68
2023/04/10 14:33:27;;;;;;;12.40;10.35;;;;;;;;;;10296692;28;20080;-68
2023/04/10 14:38:25;;;;;;;10.38;8.80;;;;;;;;;;10293241;28;20079;-67
2023/04/10 14:43:24;;;;;;;14.20;9.95;;;;;;;;;;10295225;28;20065;-68
2023/04/10 14:48:22;;;;;;;9.38;8.30;;;;;;;;;;10288138;28;20080;-67
2023/04/10 14:53:22;;;;;;;9.30;8.50;;;;;;;;;;10285324;28;20080;-66
2023/04/10 14:58:20;;;;;;;10.30;8.95;;;;;;;;;;10288766;28;20388;-67
2023/04/10 15:03:18;;;;;;;12.20;8.98;;;;;;;;;;10288979;28;20083;-67
2023/04/10 15:08:18;;;;;;;8.07;7.28;;;;;;;;;;10289806;28;20071;-68
2023/04/10 15:13:18;;;;;;;10.48;9.25;;;;;;;;;;10293132;28;20485;-66
2023/04/10 15:18:16;;;;;;;8.50;7.65;;;;;;;;;;10294828;28;21443;-67
2023/04/10 15:23:15;;;;;;;8.85;7.95;;;;;;;;;;10293609;28;20071;-68
2023/04/10 15:28:14;;;;;;;10.02;8.57;;;;;;;;;;10289284;28;20073;-67
2023/04/10 15:33:22;;;;;;;14.18;10.48;;;;;;;;;;10294524;28;20073;-67
2023/04/10 15:38:20;;;;;;;16.15;14.48;;;;;;;;;;10291061;28;20080;-67
2023/04/10 15:43:21;;;;;;;23.70;21.17;;;;;;;;;;10293149;28;20065;-68
2023/04/10 15:48:23;;;;;;;10.88;9.77;;;;;;;;;;10294830;28;20072;-66
2023/04/10 15:53:21;;;;;;;13.75;11.38;;;;;;;;;;10294827;28;20073;-67
2023/04/10 15:58:19;;;;;;;16.42;9.57;;;;;;;;;;10292522;28;20068;-67
2023/04/10 16:03:17;;;;;;;15.30;10.75;;;;;;;;;;10292652;28;20041;-67
2023/04/10 16:08:17;;;;;;;20.75;12.65;;;;;;;;;;10292517;28;20064;-67
2023/04/10 16:13:15;;;;;;;19.83;13.55;;;;;;;;;;10287354;28;20068;-67
2023/04/10 16:18:14;;;;;;;19.30;13.32;;;;;;;;;;10290819;28;20470;-66
2023/04/10 16:23:12;;;;;;;16.92;13.52;;;;;;;;;;10291013;28;20080;-67
2023/04/10 16:28:11;;;;;;;32.70;24.02;;;;;;;;;;10293804;28;20076;-66
2023/04/10 16:33:10;;;;;;;29.60;22.63;;;;;;;;;;10292148;28;20088;-66
2023/04/10 16:38:08;;;;;;;38.17;28.75;;;;;;;;;;10290602;28;20068;-67
2023/04/10 16:43:06;;;;;;;69.97;48.83;;;;;;;;;;10291079;28;20083;-67
2023/04/10 16:48:06;;;;;;;59.00;42.83;;;;;;;;;;10290169;28;20528;-66
2023/04/10 16:53:04;;;;;;;34.60;26.40;;;;;;;;;;10291152;28;20068;-67
2023/04/10 16:58:02;;;;;;;22.60;18.58;;;;;;;;;;10290166;28;20079;-67
2023/04/10 17:03:00;;;;;;;26.88;23.25;;;;;;;;;;10291095;28;20072;-67
2023/04/10 17:08:00;;;;;;;22.58;15.23;;;;;;;;;;10290862;28;20052;-67
2023/04/10 17:12:58;;;;;;;20.08;15.38;;;;;;;;;;10290729;28;20091;-67
2023/04/10 17:17:56;;;;;;;26.05;19.50;;;;;;;;;;10288698;28;20075;-66
2023/04/10 17:22:54;;;;;;;16.98;15.00;;;;;;;;;;10284574;28;20072;-67
2023/04/10 17:27:54;;;;;;;16.75;15.05;;;;;;;;;;10290431;28;20083;-67
2023/04/10 17:32:53;;;;;;;15.05;13.55;;;;;;;;;;10289520;28;20073;-67
2023/04/10 17:37:51;;;;;;;20.08;15.15;;;;;;;;;;10291076;28;20079;-67
2023/04/10 17:42:49;;;;;;;18.52;16.35;;;;;;;;;;10289032;28;20076;-67
2023/04/10 17:47:49;;;;;;;17.60;15.70;;;;;;;;;;10286808;28;20079;-67
2023/04/10 17:52:47;;;;;;;20.95;15.80;;;;;;;;;;10288372;28;20510;-67
2023/04/10 17:57:45;;;;;;;17.23;15.57;;;;;;;;;;10287803;28;20068;-67
2023/04/10 18:02:44;;;;;;;18.42;16.48;;;;;;;;;;10289055;28;20072;-67
2023/04/10 18:07:43;;;;;;;32.17;25.02;;;;;;;;;;10286940;28;20076;-68
2023/04/10 18:12:41;;;;;;;30.58;25.88;;;;;;;;;;10287930;28;20084;-68
2023/04/10 18:17:40;;;;;;;32.20;27.73;;;;;;;;;;10288856;28;20490;-67
2023/04/10 18:22:39;;;;;;;29.15;26.00;;;;;;;;;;10286874;28;20065;-67
2023/04/10 18:27:40;;;;;;;33.47;26.48;;;;;;;;;;10288610;28;20072;-67
2023/04/10 18:32:42;;;;;;;41.67;33.60;;;;;;;;;;10291677;28;20087;-67
2023/04/10 18:37:41;;;;;;;43.70;30.20;;;;;;;;;;10296666;28;20084;-68
2023/04/10 18:42:40;;;;;;;32.17;28.63;;;;;;;;;;10295639;28;20088;-67
2023/04/10 18:47:38;;;;;;;24.42;19.92;;;;;;;;;;10300399;28;20084;-68
2023/04/10 18:52:37;;;;;;;17.50;15.60;;;;;;;;;;10295218;28;20076;-68
2023/04/10 18:57:35;;;;;;;18.83;16.48;;;;;;;;;;10292299;28;20478;-67
2023/04/10 19:02:35;;;;;;;16.60;14.90;;;;;;;;;;10294597;28;20071;-67
2023/04/10 19:07:34;;;;;;;18.13;16.02;;;;;;;;;;10293620;28;20072;-68
2023/04/10 19:12:34;;;;;;;21.80;17.73;;;;;;;;;;10296689;28;20080;-68
2023/04/10 19:17:32;;;;;;;20.65;17.73;;;;;;;;;;10294867;28;20076;-68
2023/04/10 19:22:33;;;;;;;20.63;17.88;;;;;;;;;;10296460;28;20075;-67
2023/04/10 19:27:31;;;;;;;19.65;17.55;;;;;;;;;;10293378;28;20079;-66
2023/04/10 19:32:30;;;;;;;21.90;17.65;;;;;;;;;;10287313;28;20072;-66
2023/04/10 19:37:30;;;;;;;28.65;20.83;;;;;;;;;;10283745;28;20506;-67
2023/04/10 19:42:29;;;;;;;31.48;22.85;;;;;;;;;;10290873;28;20084;-66
2023/04/10 19:47:30;;;;;;;20.67;18.30;;;;;;;;;;10287942;28;20072;-65
2023/04/10 19:52:29;;;;;;;16.10;14.50;;;;;;;;;;10287252;28;20068;-67
2023/04/10 19:57:27;;;;;;;14.80;13.18;;;;;;;;;;10290412;28;20523;-66
2023/04/10 20:02:26;;;;;;;17.33;14.15;;;;;;;;;;10280206;28;20063;-66
2023/04/10 20:07:26;;;;;;;13.05;11.75;;;;;;;;;;10286520;28;20072;-66
2023/04/10 20:12:24;;;;;;;12.73;11.43;;;;;;;;;;10293451;28;20099;-67
2023/04/10 20:17:37;;;;;;;13.00;11.70;;;;;;;;;;10292416;28;20068;-67
2023/04/10 20:22:37;;;;;;;12.65;11.35;;;;;;;;;;10285379;28;20071;-67
2023/04/10 20:27:35;;;;;;;11.40;10.25;;;;;;;;;;10284577;28;20076;-65
2023/04/10 20:32:33;;;;;;;13.93;12.52;;;;;;;;;;10287545;28;20077;-66
2023/04/10 20:37:31;;;;;;;12.82;11.52;;;;;;;;;;10285112;28;20088;-66
2023/04/10 20:42:31;;;;;;;11.90;10.80;;;;;;;;;;10286579;28;20077;-66
2023/04/10 20:47:29;;;;;;;11.18;10.18;;;;;;;;;;10287732;28;20084;-67
2023/04/10 20:52:27;;;;;;;11.45;10.35;;;;;;;;;;10288376;28;20071;-66
2023/04/10 20:57:28;;;;;;;10.85;9.82;;;;;;;;;;10286952;28;20135;-66
2023/04/10 21:02:44;;;;;;;10.93;9.93;;;;;;;;;;10275071;28;20076;-65
2023/04/10 21:07:47;;;;;;;10.38;9.48;;;;;;;;;;10284301;28;20532;-67
2023/04/10 21:12:48;;;;;;;12.68;9.70;;;;;;;;;;10282895;28;20084;-66
2023/04/10 21:17:48;;;;;;;12.25;9.48;;;;;;;;;;10285899;28;20090;-66
2023/04/10 21:22:46;;;;;;;11.60;10.27;;;;;;;;;;10288336;28;20087;-67
2023/04/10 21:28:01;;;;;;;11.73;10.27;;;;;;;;;;10284607;28;20092;-67
2023/04/10 21:33:01;;;;;;;11.45;10.18;;;;;;;;;;10282195;28;20068;-67
2023/04/10 21:37:59;;;;;;;10.88;9.88;;;;;;;;;;10287049;28;20073;-67
2023/04/10 21:42:59;;;;;;;11.32;10.23;;;;;;;;;;10282734;28;20462;-68
2023/04/10 21:47:59;;;;;;;11.48;10.38;;;;;;;;;;10286136;28;20076;-69
2023/04/10 21:52:59;;;;;;;11.63;10.52;;;;;;;;;;10290489;28;20064;-68
2023/04/10 21:57:57;;;;;;;10.68;9.68;;;;;;;;;;10289633;28;20119;-68
2023/04/10 22:02:55;;;;;;;11.13;9.98;;;;;;;;;;10292888;28;20073;-66
2023/04/10 22:07:54;;;;;;;12.70;11.40;;;;;;;;;;10296406;28;20076;-67
2023/04/10 22:12:53;;;;;;;10.45;9.45;;;;;;;;;;10298356;28;20857;-67
2023/04/10 22:17:51;;;;;;;10.77;9.77;;;;;;;;;;10299708;28;20073;-67
2023/04/10 22:22:52;;;;;;;10.90;9.82;;;;;;;;;;10297512;28;20082;-68
2023/04/10 22:27:51;;;;;;;11.27;10.05;;;;;;;;;;10292318;28;20077;-68
2023/04/10 22:32:54;;;;;;;10.30;9.30;;;;;;;;;;10294771;28;20065;-68
2023/04/10 22:37:52;;;;;;;11.50;10.38;;;;;;;;;;10295342;28;20080;-68
2023/04/10 22:42:50;;;;;;;10.77;9.75;;;;;;;;;;10295887;28;20087;-67
2023/04/10 22:47:48;;;;;;;10.20;9.23;;;;;;;;;;10292593;28;20068;-68
2023/04/10 22:52:48;;;;;;;11.02;10.00;;;;;;;;;;10297122;28;20302;-67
2023/04/10 22:57:47;;;;;;;11.35;10.35;;;;;;;;;;10297607;28;20090;-67
2023/04/10 23:02:48;;;;;;;9.50;8.52;;;;;;;;;;10292064;28;20072;-67
2023/04/10 23:07:47;;;;;;;11.48;10.27;;;;;;;;;;10290311;28;20514;-67
2023/04/10 23:12:48;;;;;;;9.60;8.60;;;;;;;;;;10291223;28;20072;-67
2023/04/10 23:17:46;;;;;;;9.63;8.73;;;;;;;;;;10287923;28;20104;-68
2023/04/10 23:22:45;;;;;;;9.98;9.00;;;;;;;;;;10291461;28;20079;-67
2023/04/10 23:27:44;;;;;;;9.98;9.00;;;;;;;;;;10291278;28;20064;-68
2023/04/10 23:32:42;;;;;;;10.02;9.07;;;;;;;;;;10287925;28;20084;-68
2023/04/10 23:37:41;;;;;;;10.45;9.38;;;;;;;;;;10295118;28;20537;-67
2023/04/10 23:42:39;;;;;;;10.38;9.48;;;;;;;;;;10294687;28;20167;-67
2023/04/10 23:47:38;;;;;;;10.45;9.45;;;;;;;;;;10292074;28;20099;-67
2023/04/10 23:52:36;;;;;;;11.63;10.48;;;;;;;;;;10292783;28;20552;-67
2023/04/10 23:57:35;;;;;;;11.52;10.43;;;;;;;;;;10291376;28;20499;-67
